createdAt,value
2024-01-16T00:00:04.052Z,1021.00
2024-01-16T00:01:04.186Z,1022.00
2024-01-16T00:02:04.204Z,1021.00
2024-01-16T00:03:04.201Z,1015.00
2024-01-16T00:04:04.287Z,1014.00
2024-01-16T00:05:04.395Z,1013.00
2024-01-16T00:06:04.327Z,1013.00
2024-01-16T00:07:04.488Z,1013.00
2024-01-16T00:08:04.432Z,1012.00
2024-01-16T00:09:04.482Z,1011.00
2024-01-16T00:10:04.519Z,1011.00
2024-01-16T00:11:04.712Z,1010.00
2024-01-16T00:12:04.579Z,1010.00
2024-01-16T00:13:04.624Z,1012.00
2024-01-16T00:14:04.712Z,1013.00
2024-01-16T00:15:04.706Z,1011.00
2024-01-16T00:16:04.709Z,1015.00
2024-01-16T00:17:04.771Z,1016.00
2024-01-16T00:18:04.900Z,1018.00
2024-01-16T00:19:04.937Z,1016.00
2024-01-16T00:20:04.866Z,1013.00
2024-01-16T00:21:04.887Z,1009.00
2024-01-16T00:22:04.933Z,1011.00
2024-01-16T00:23:04.982Z,1011.00
2024-01-16T00:24:05.030Z,1013.00
2024-01-16T00:25:05.889Z,1013.00
2024-01-16T00:26:05.161Z,1013.00
2024-01-16T00:27:07.421Z,1012.00
2024-01-16T00:28:05.137Z,1008.00
2024-01-16T00:29:05.197Z,1006.00
2024-01-16T00:30:05.161Z,1008.00
2024-01-16T00:31:05.152Z,1010.00
2024-01-16T00:32:05.201Z,1011.00
2024-01-16T00:33:05.308Z,1013.00
2024-01-16T00:34:05.241Z,1016.00
2024-01-16T00:35:05.206Z,1016.00
2024-01-16T00:36:05.160Z,1016.00
2024-01-16T00:37:05.159Z,1016.00
2024-01-16T00:38:05.176Z,1011.00
2024-01-16T00:39:05.714Z,1007.00
2024-01-16T00:40:05.170Z,1004.00
2024-01-16T00:41:05.223Z,1001.00
2024-01-16T00:42:05.168Z,999.00
2024-01-16T00:43:05.187Z,995.00
2024-01-16T00:44:05.214Z,992.00
2024-01-16T00:45:05.186Z,988.00
2024-01-16T00:46:05.189Z,987.00
2024-01-16T00:47:05.223Z,989.00
2024-01-16T00:48:05.336Z,990.00
2024-01-16T00:49:05.282Z,991.00
2024-01-16T00:50:05.246Z,987.00
2024-01-16T00:51:05.189Z,985.00
2024-01-16T00:52:05.211Z,986.00
2024-01-16T00:53:05.216Z,987.00
2024-01-16T00:54:05.198Z,987.00
2024-01-16T00:55:05.197Z,987.00
2024-01-16T00:56:05.237Z,986.00
2024-01-16T00:57:05.197Z,986.00
2024-01-16T00:58:05.209Z,984.00
2024-01-16T00:59:05.223Z,986.00
2024-01-16T01:00:05.222Z,984.00
2024-01-16T01:01:05.259Z,984.00
2024-01-16T01:02:05.282Z,988.00
2024-01-16T01:03:05.210Z,988.00
2024-01-16T01:04:05.288Z,987.00
2024-01-16T01:05:05.277Z,983.00
2024-01-16T01:06:05.297Z,980.00
2024-01-16T01:07:05.228Z,978.00
2024-01-16T01:08:05.263Z,976.00
2024-01-16T01:09:05.221Z,978.00
2024-01-16T01:10:05.250Z,979.00
2024-01-16T01:11:05.258Z,982.00
2024-01-16T01:12:05.248Z,983.00
2024-01-16T01:13:05.238Z,981.00
2024-01-16T01:14:05.366Z,980.00
2024-01-16T01:15:05.324Z,977.00
2024-01-16T01:16:05.248Z,975.00
2024-01-16T01:17:05.305Z,971.00
2024-01-16T01:18:05.735Z,970.00
2024-01-16T01:19:05.358Z,968.00
2024-01-16T01:20:05.309Z,968.00
2024-01-16T01:21:05.276Z,969.00
2024-01-16T01:22:05.313Z,970.00
2024-01-16T01:23:05.416Z,970.00
2024-01-16T01:24:05.379Z,970.00
2024-01-16T01:25:05.367Z,973.00
2024-01-16T01:26:05.434Z,969.00
2024-01-16T01:27:05.421Z,962.00
2024-01-16T01:28:05.435Z,964.00
2024-01-16T01:29:05.507Z,964.00
2024-01-16T01:30:05.575Z,963.00
2024-01-16T01:31:05.589Z,964.00
2024-01-16T01:32:05.606Z,964.00
2024-01-16T01:33:05.707Z,964.00
2024-01-16T01:34:05.744Z,964.00
2024-01-16T01:35:05.731Z,963.00
2024-01-16T01:36:09.464Z,961.00
2024-01-16T01:37:05.728Z,961.00
2024-01-16T01:38:05.770Z,958.00
2024-01-16T01:39:05.743Z,957.00
2024-01-16T01:40:05.750Z,956.00
2024-01-16T01:41:08.568Z,955.00
2024-01-16T01:42:05.722Z,954.00
2024-01-16T01:43:05.737Z,954.00
2024-01-16T01:44:05.793Z,953.00
2024-01-16T01:45:05.750Z,952.00
2024-01-16T01:46:05.746Z,951.00
2024-01-16T01:47:05.805Z,951.00
2024-01-16T01:48:05.873Z,951.00
2024-01-16T01:49:05.810Z,948.00
2024-01-16T01:50:05.777Z,947.00
2024-01-16T01:51:05.761Z,951.00
2024-01-16T01:52:05.757Z,949.00
2024-01-16T01:53:05.772Z,949.00
2024-01-16T01:54:05.793Z,950.00
2024-01-16T01:55:05.757Z,947.00
2024-01-16T01:56:05.792Z,944.00
2024-01-16T01:57:05.758Z,943.00
2024-01-16T01:58:05.775Z,944.00
2024-01-16T01:59:05.777Z,944.00
2024-01-16T02:00:05.770Z,943.00
2024-01-16T02:01:05.813Z,944.00
2024-01-16T02:02:05.816Z,942.00
2024-01-16T02:03:05.779Z,938.00
2024-01-16T02:04:05.775Z,936.00
2024-01-16T02:05:05.852Z,934.00
2024-01-16T02:06:05.927Z,936.00
2024-01-16T02:07:05.768Z,934.00
2024-01-16T02:08:05.789Z,934.00
2024-01-16T02:09:05.791Z,936.00
2024-01-16T02:10:06.448Z,938.00
2024-01-16T02:11:05.791Z,935.00
2024-01-16T02:12:05.784Z,930.00
2024-01-16T02:13:05.775Z,931.00
2024-01-16T02:14:05.807Z,928.00
2024-01-16T02:15:05.809Z,928.00
2024-01-16T02:16:05.784Z,924.00
2024-01-16T02:17:05.836Z,925.00
2024-01-16T02:18:05.906Z,925.00
2024-01-16T02:19:11.844Z,922.00
2024-01-16T02:20:05.853Z,920.00
2024-01-16T02:21:05.793Z,921.00
2024-01-16T02:22:05.819Z,920.00
2024-01-16T02:23:05.866Z,922.00
2024-01-16T02:24:05.788Z,923.00
2024-01-16T02:25:05.790Z,924.00
2024-01-16T02:26:05.838Z,925.00
2024-01-16T02:27:05.808Z,925.00
2024-01-16T02:28:05.790Z,926.00
2024-01-16T02:29:05.857Z,923.00
2024-01-16T02:30:05.818Z,922.00
2024-01-16T02:31:05.831Z,919.00
2024-01-16T02:32:05.857Z,920.00
2024-01-16T02:33:05.952Z,921.00
2024-01-16T02:34:05.977Z,922.00
2024-01-16T02:35:05.860Z,921.00
2024-01-16T02:36:05.804Z,922.00
2024-01-16T02:37:05.807Z,919.00
2024-01-16T02:38:05.824Z,920.00
2024-01-16T02:39:05.815Z,921.00
2024-01-16T02:40:05.832Z,920.00
2024-01-16T02:41:05.865Z,916.00
2024-01-16T02:42:05.822Z,920.00
2024-01-16T02:43:05.821Z,923.00
2024-01-16T02:44:05.841Z,921.00
2024-01-16T02:45:05.822Z,921.00
2024-01-16T02:46:05.841Z,919.00
2024-01-16T02:47:05.890Z,917.00
2024-01-16T02:48:05.918Z,918.00
2024-01-16T02:49:05.845Z,915.00
2024-01-16T02:50:05.958Z,914.00
2024-01-16T02:51:05.843Z,912.00
2024-01-16T02:52:05.850Z,912.00
2024-01-16T02:53:05.908Z,910.00
2024-01-16T02:54:05.876Z,905.00
2024-01-16T02:55:05.844Z,904.00
2024-01-16T02:56:05.916Z,905.00
2024-01-16T02:57:05.915Z,904.00
2024-01-16T02:58:05.857Z,904.00
2024-01-16T02:59:11.906Z,905.00
2024-01-16T03:00:05.891Z,903.00
2024-01-16T03:01:05.931Z,901.00
2024-01-16T03:02:05.908Z,900.00
2024-01-16T03:03:05.918Z,901.00
2024-01-16T03:04:05.871Z,901.00
2024-01-16T03:05:05.948Z,901.00
2024-01-16T03:06:06.006Z,898.00
2024-01-16T03:07:05.901Z,895.00
2024-01-16T03:08:05.912Z,893.00
2024-01-16T03:09:05.882Z,893.00
2024-01-16T03:10:05.885Z,894.00
2024-01-16T03:11:05.920Z,896.00
2024-01-16T03:12:05.897Z,898.00
2024-01-16T03:13:05.881Z,897.00
2024-01-16T03:14:05.931Z,897.00
2024-01-16T03:15:05.895Z,898.00
2024-01-16T03:16:05.914Z,898.00
2024-01-16T03:17:05.932Z,899.00
2024-01-16T03:18:05.974Z,899.00
2024-01-16T03:19:05.912Z,900.00
2024-01-16T03:20:05.920Z,899.00
2024-01-16T03:21:05.903Z,896.00
2024-01-16T03:22:05.909Z,892.00
2024-01-16T03:23:05.933Z,891.00
2024-01-16T03:24:05.915Z,891.00
2024-01-16T03:25:05.936Z,886.00
2024-01-16T03:26:05.968Z,888.00
2024-01-16T03:27:05.909Z,887.00
2024-01-16T03:28:05.922Z,884.00
2024-01-16T03:29:05.936Z,882.00
2024-01-16T03:30:05.983Z,885.00
2024-01-16T03:31:05.977Z,883.00
2024-01-16T03:32:05.926Z,881.00
2024-01-16T03:33:05.971Z,878.00
2024-01-16T03:34:05.999Z,879.00
2024-01-16T03:35:05.969Z,877.00
2024-01-16T03:36:05.925Z,875.00
2024-01-16T03:37:05.924Z,872.00
2024-01-16T03:38:05.954Z,872.00
2024-01-16T03:39:05.922Z,872.00
2024-01-16T03:40:05.933Z,875.00
2024-01-16T03:41:05.978Z,874.00
2024-01-16T03:42:05.937Z,876.00
2024-01-16T03:43:05.962Z,873.00
2024-01-16T03:44:05.941Z,873.00
2024-01-16T03:45:05.934Z,873.00
2024-01-16T03:46:05.930Z,877.00
2024-01-16T03:47:05.944Z,874.00
2024-01-16T03:48:06.376Z,876.00
2024-01-16T03:49:06.007Z,874.00
2024-01-16T03:50:05.970Z,874.00
2024-01-16T03:51:05.948Z,873.00
2024-01-16T03:52:05.957Z,870.00
2024-01-16T03:53:06.042Z,867.00
2024-01-16T03:54:05.993Z,868.00
2024-01-16T03:55:05.943Z,866.00
2024-01-16T03:56:05.973Z,866.00
2024-01-16T03:57:05.948Z,864.00
2024-01-16T03:58:05.971Z,865.00
2024-01-16T03:59:05.983Z,864.00
2024-01-16T04:00:05.989Z,860.00
2024-01-16T04:01:05.983Z,863.00
2024-01-16T04:02:06.058Z,860.00
2024-01-16T04:03:05.977Z,861.00
2024-01-16T04:04:06.000Z,862.00
2024-01-16T04:05:06.038Z,862.00
2024-01-16T04:06:06.115Z,863.00
2024-01-16T04:07:06.014Z,863.00
2024-01-16T04:08:06.004Z,861.00
2024-01-16T04:09:05.957Z,858.00
2024-01-16T04:10:05.969Z,856.00
2024-01-16T04:11:06.001Z,857.00
2024-01-16T04:12:05.977Z,855.00
2024-01-16T04:13:05.970Z,852.00
2024-01-16T04:14:06.037Z,856.00
2024-01-16T04:15:05.985Z,854.00
2024-01-16T04:16:05.974Z,852.00
2024-01-16T04:17:06.039Z,852.00
2024-01-16T04:18:06.077Z,854.00
2024-01-16T04:19:06.117Z,855.00
2024-01-16T04:20:06.158Z,853.00
2024-01-16T04:21:06.156Z,854.00
2024-01-16T04:22:06.253Z,850.00
2024-01-16T04:23:06.225Z,850.00
2024-01-16T04:24:06.228Z,852.00
2024-01-16T04:25:06.243Z,854.00
2024-01-16T04:26:06.361Z,855.00
2024-01-16T04:27:06.407Z,854.00
2024-01-16T04:28:06.370Z,849.00
2024-01-16T04:29:06.514Z,848.00
2024-01-16T04:30:06.503Z,850.00
2024-01-16T04:31:06.531Z,845.00
2024-01-16T04:32:06.684Z,844.00
2024-01-16T04:33:06.702Z,841.00
2024-01-16T04:34:06.713Z,839.00
2024-01-16T04:35:06.743Z,841.00
2024-01-16T04:36:06.702Z,842.00
2024-01-16T04:37:06.766Z,842.00
2024-01-16T04:38:06.820Z,841.00
2024-01-16T04:39:06.835Z,841.00
2024-01-16T04:40:06.882Z,843.00
2024-01-16T04:41:06.943Z,841.00
2024-01-16T04:42:06.964Z,839.00
2024-01-16T04:43:07.022Z,839.00
2024-01-16T04:44:07.065Z,841.00
2024-01-16T04:45:07.104Z,841.00
2024-01-16T04:46:07.146Z,841.00
2024-01-16T04:47:07.218Z,840.00
2024-01-16T04:48:07.401Z,840.00
2024-01-16T04:49:07.295Z,839.00
2024-01-16T04:50:14.629Z,839.00
2024-01-16T04:51:14.581Z,845.00
2024-01-16T04:52:14.591Z,847.00
2024-01-16T04:53:14.613Z,848.00
2024-01-16T04:54:14.580Z,850.00
2024-01-16T04:55:14.605Z,850.00
2024-01-16T04:56:14.656Z,847.00
2024-01-16T04:57:14.595Z,845.00
2024-01-16T04:58:14.592Z,842.00
2024-01-16T04:59:16.839Z,839.00
2024-01-16T05:00:14.665Z,837.00
2024-01-16T05:01:14.714Z,837.00
2024-01-16T05:02:14.754Z,837.00
2024-01-16T05:03:14.854Z,834.00
2024-01-16T05:04:14.894Z,835.00
2024-01-16T05:05:14.947Z,836.00
2024-01-16T05:06:14.955Z,837.00
2024-01-16T05:07:14.950Z,837.00
2024-01-16T05:08:15.096Z,837.00
2024-01-16T05:09:15.044Z,837.00
2024-01-16T05:10:15.097Z,835.00
2024-01-16T05:11:15.169Z,829.00
2024-01-16T05:12:15.180Z,826.00
2024-01-16T05:13:15.222Z,823.00
2024-01-16T05:14:15.298Z,824.00
2024-01-16T05:15:15.333Z,824.00
2024-01-16T05:16:15.392Z,824.00
2024-01-16T05:17:15.435Z,823.00
2024-01-16T05:18:15.546Z,822.00
2024-01-16T05:19:15.553Z,821.00
2024-01-16T05:20:15.595Z,819.00
2024-01-16T05:21:15.618Z,822.00
2024-01-16T05:22:15.666Z,823.00
2024-01-16T05:23:15.776Z,821.00
2024-01-16T05:24:17.001Z,821.00
2024-01-16T05:25:15.781Z,820.00
2024-01-16T05:26:15.816Z,819.00
2024-01-16T05:27:15.837Z,820.00
2024-01-16T05:28:15.864Z,821.00
2024-01-16T05:29:15.958Z,822.00
2024-01-16T05:30:16.033Z,821.00
2024-01-16T05:31:15.987Z,817.00
2024-01-16T05:32:16.046Z,815.00
2024-01-16T05:33:16.231Z,812.00
2024-01-16T05:34:16.171Z,809.00
2024-01-16T05:35:16.216Z,808.00
2024-01-16T05:36:16.182Z,808.00
2024-01-16T05:37:16.205Z,810.00
2024-01-16T05:38:16.338Z,811.00
2024-01-16T05:39:16.293Z,810.00
2024-01-16T05:40:16.364Z,809.00
2024-01-16T05:41:16.452Z,808.00
2024-01-16T05:42:16.486Z,811.00
2024-01-16T05:43:16.524Z,808.00
2024-01-16T05:44:16.618Z,807.00
2024-01-16T05:45:16.608Z,805.00
2024-01-16T05:46:16.683Z,802.00
2024-01-16T05:47:16.736Z,805.00
2024-01-16T05:48:16.911Z,805.00
2024-01-16T05:49:16.849Z,806.00
2024-01-16T05:50:16.957Z,803.00
2024-01-16T05:51:16.977Z,802.00
2024-01-16T05:52:16.987Z,805.00
2024-01-16T05:53:17.050Z,804.00
2024-01-16T05:54:17.132Z,807.00
2024-01-16T05:55:17.156Z,807.00
2024-01-16T05:56:17.235Z,808.00
2024-01-16T05:57:17.254Z,812.00
2024-01-16T05:58:17.294Z,814.00
2024-01-16T05:59:17.370Z,814.00
2024-01-16T06:00:17.416Z,816.00
2024-01-16T06:01:17.480Z,812.00
2024-01-16T06:02:17.574Z,810.00
2024-01-16T06:03:17.583Z,808.00
2024-01-16T06:04:17.655Z,804.00
2024-01-16T06:05:17.686Z,804.00
2024-01-16T06:06:17.875Z,805.00
2024-01-16T06:07:17.691Z,808.00
2024-01-16T06:08:17.821Z,808.00
2024-01-16T06:09:17.823Z,809.00
2024-01-16T06:10:17.857Z,810.00
2024-01-16T06:11:17.916Z,809.00
2024-01-16T06:12:17.945Z,809.00
2024-01-16T06:13:17.982Z,808.00
2024-01-16T06:14:19.997Z,808.00
2024-01-16T06:15:18.039Z,808.00
2024-01-16T06:16:18.035Z,808.00
2024-01-16T06:17:18.109Z,807.00
2024-01-16T06:18:18.133Z,806.00
2024-01-16T06:19:18.122Z,805.00
2024-01-16T06:20:18.105Z,806.00
2024-01-16T06:21:18.670Z,806.00
2024-01-16T06:22:18.050Z,811.00
2024-01-16T06:23:18.061Z,807.00
2024-01-16T06:24:18.047Z,808.00
2024-01-16T06:25:18.055Z,804.00
2024-01-16T06:26:18.120Z,803.00
2024-01-16T06:27:18.059Z,802.00
2024-01-16T06:28:18.057Z,800.00
2024-01-16T06:29:24.942Z,803.00
2024-01-16T06:30:19.237Z,803.00
2024-01-16T06:31:18.111Z,804.00
2024-01-16T06:32:18.174Z,801.00
2024-01-16T06:33:18.234Z,802.00
2024-01-16T06:34:18.188Z,799.00
2024-01-16T06:35:18.124Z,796.00
2024-01-16T06:36:18.098Z,795.00
2024-01-16T06:37:18.121Z,794.00
2024-01-16T06:38:18.125Z,795.00
2024-01-16T06:39:18.141Z,793.00
2024-01-16T06:40:18.133Z,792.00
2024-01-16T06:41:18.226Z,791.00
2024-01-16T06:42:18.245Z,788.00
2024-01-16T06:43:18.347Z,791.00
2024-01-16T06:44:18.387Z,792.00
2024-01-16T06:45:18.415Z,792.00
2024-01-16T06:46:18.479Z,790.00
2024-01-16T06:47:18.557Z,792.00
2024-01-16T06:48:18.765Z,792.00
2024-01-16T06:49:18.680Z,795.00
2024-01-16T06:50:18.652Z,793.00
2024-01-16T06:51:18.657Z,794.00
2024-01-16T06:52:18.708Z,793.00
2024-01-16T06:53:18.764Z,796.00
2024-01-16T06:54:18.837Z,794.00
2024-01-16T06:55:18.896Z,796.00
2024-01-16T06:56:18.925Z,798.00
2024-01-16T06:57:19.034Z,798.00
2024-01-16T06:58:19.044Z,799.00
2024-01-16T06:59:19.113Z,795.00
2024-01-16T07:00:19.149Z,794.00
2024-01-16T07:01:19.272Z,793.00
2024-01-16T07:02:19.313Z,790.00
2024-01-16T07:03:19.346Z,790.00
2024-01-16T07:04:19.484Z,790.00
2024-01-16T07:05:19.511Z,788.00
2024-01-16T07:06:19.598Z,788.00
2024-01-16T07:07:19.596Z,784.00
2024-01-16T07:08:19.627Z,785.00
2024-01-16T07:09:19.660Z,784.00
2024-01-16T07:10:19.926Z,783.00
2024-01-16T07:11:20.224Z,782.00
2024-01-16T07:12:19.866Z,781.00
2024-01-16T07:13:19.933Z,782.00
2024-01-16T07:14:20.086Z,783.00
2024-01-16T07:15:20.063Z,783.00
2024-01-16T07:16:20.118Z,785.00
2024-01-16T07:17:20.154Z,788.00
2024-01-16T07:18:20.287Z,789.00
2024-01-16T07:19:20.216Z,789.00
2024-01-16T07:20:20.308Z,786.00
2024-01-16T07:21:20.324Z,783.00
2024-01-16T07:22:20.356Z,782.00
2024-01-16T07:23:20.416Z,777.00
2024-01-16T07:24:20.480Z,780.00
2024-01-16T07:25:20.520Z,784.00
2024-01-16T07:26:20.615Z,785.00
2024-01-16T07:27:20.616Z,786.00
2024-01-16T07:28:20.679Z,783.00
2024-01-16T07:29:20.768Z,783.00
2024-01-16T07:30:20.846Z,787.00
2024-01-16T07:31:20.864Z,789.00
2024-01-16T07:32:20.934Z,786.00
2024-01-16T07:33:21.099Z,786.00
2024-01-16T07:34:21.227Z,786.00
2024-01-16T07:35:21.151Z,787.00
2024-01-16T07:36:21.148Z,783.00
2024-01-16T07:37:21.200Z,782.00
2024-01-16T07:38:21.347Z,782.00
2024-01-16T07:39:21.333Z,781.00
2024-01-16T07:40:21.389Z,778.00
2024-01-16T07:41:21.461Z,777.00
2024-01-16T07:42:21.522Z,780.00
2024-01-16T07:43:21.579Z,778.00
2024-01-16T07:44:21.647Z,777.00
2024-01-16T07:45:21.680Z,780.00
2024-01-16T07:46:21.737Z,781.00
2024-01-16T07:47:21.806Z,781.00
2024-01-16T07:48:21.975Z,782.00
2024-01-16T07:49:21.956Z,782.00
2024-01-16T07:50:22.012Z,778.00
2024-01-16T07:51:22.005Z,778.00
2024-01-16T07:52:22.044Z,776.00
2024-01-16T07:53:22.105Z,779.00
2024-01-16T07:54:22.139Z,777.00
2024-01-16T07:55:25.148Z,777.00
2024-01-16T07:56:22.294Z,781.00
2024-01-16T07:57:22.189Z,780.00
2024-01-16T07:58:22.205Z,779.00
2024-01-16T07:59:22.425Z,787.00
2024-01-16T08:00:22.345Z,801.00
2024-01-16T08:01:22.420Z,795.00
2024-01-16T08:02:24.822Z,788.00
2024-01-16T08:03:22.322Z,784.00
2024-01-16T08:04:22.261Z,782.00
2024-01-16T08:05:22.328Z,776.00
2024-01-16T08:06:22.308Z,775.00
2024-01-16T08:07:22.209Z,775.00
2024-01-16T08:08:22.244Z,773.00
2024-01-16T08:09:22.274Z,772.00
2024-01-16T08:10:22.245Z,774.00
2024-01-16T08:11:22.242Z,776.00
2024-01-16T08:12:22.250Z,779.00
2024-01-16T08:13:22.228Z,779.00
2024-01-16T08:14:22.245Z,781.00
2024-01-16T08:15:22.243Z,781.00
2024-01-16T08:16:22.249Z,785.00
2024-01-16T08:17:22.270Z,782.00
2024-01-16T08:18:22.406Z,783.00
2024-01-16T08:19:22.352Z,779.00
2024-01-16T08:20:22.296Z,781.00
2024-01-16T08:21:22.273Z,781.00
2024-01-16T08:22:22.267Z,781.00
2024-01-16T08:23:22.397Z,780.00
2024-01-16T08:24:22.269Z,781.00
2024-01-16T08:25:22.271Z,781.00
2024-01-16T08:26:22.284Z,781.00
2024-01-16T08:27:22.261Z,777.00
2024-01-16T08:28:23.802Z,777.00
2024-01-16T08:29:22.255Z,776.00
2024-01-16T08:30:22.357Z,775.00
2024-01-16T08:31:22.287Z,777.00
2024-01-16T08:32:22.365Z,778.00
2024-01-16T08:33:30.954Z,781.00
2024-01-16T08:34:23.466Z,781.00
2024-01-16T08:35:22.535Z,780.00
2024-01-16T08:36:22.320Z,782.00
2024-01-16T08:37:22.276Z,781.00
2024-01-16T08:38:22.318Z,782.00
2024-01-16T08:39:22.279Z,783.00
2024-01-16T08:40:22.286Z,786.00
2024-01-16T08:41:22.298Z,793.00
2024-01-16T08:42:22.297Z,793.00
2024-01-16T08:43:22.331Z,791.00
2024-01-16T08:44:22.390Z,789.00
2024-01-16T08:45:22.393Z,790.00
2024-01-16T08:46:22.290Z,794.00
2024-01-16T08:47:22.355Z,844.00
2024-01-16T08:48:22.530Z,833.00
2024-01-16T08:49:22.351Z,839.00
2024-01-16T08:50:22.350Z,899.00
2024-01-16T08:51:22.311Z,922.00
2024-01-16T08:52:22.410Z,925.00
2024-01-16T08:53:22.459Z,926.00
2024-01-16T08:54:22.460Z,930.00
2024-01-16T08:55:22.512Z,931.00
2024-01-16T08:56:22.675Z,1143.00
2024-01-16T08:57:24.777Z,1209.00
2024-01-16T08:58:22.593Z,1207.00
2024-01-16T08:59:22.636Z,1187.00
2024-01-16T09:00:22.594Z,1228.00
2024-01-16T09:01:22.640Z,1220.00
2024-01-16T09:02:22.638Z,1222.00
2024-01-16T09:03:22.606Z,1235.00
2024-01-16T09:04:22.750Z,1242.00
2024-01-16T09:05:22.641Z,1288.00
2024-01-16T09:06:22.732Z,1293.00
2024-01-16T09:07:22.788Z,1328.00
2024-01-16T09:08:22.622Z,1338.00
2024-01-16T09:09:22.606Z,1345.00
2024-01-16T09:10:22.623Z,1357.00
2024-01-16T09:11:22.639Z,1429.00
2024-01-16T09:12:22.608Z,1451.00
2024-01-16T09:13:22.606Z,1438.00
2024-01-16T09:14:22.656Z,1437.00
2024-01-16T09:15:22.610Z,1430.00
2024-01-16T09:16:22.615Z,1426.00
2024-01-16T09:17:22.617Z,1467.00
2024-01-16T09:18:22.870Z,1475.00
2024-01-16T09:19:22.845Z,1484.00
2024-01-16T09:20:22.653Z,1518.00
2024-01-16T09:21:22.633Z,1521.00
2024-01-16T09:22:22.624Z,1517.00
2024-01-16T09:23:22.637Z,1512.00
2024-01-16T09:24:22.647Z,1538.00
2024-01-16T09:25:22.607Z,1589.00
2024-01-16T09:26:22.672Z,1611.00
2024-01-16T09:27:22.626Z,1606.00
2024-01-16T09:28:22.643Z,1600.00
2024-01-16T09:29:22.648Z,1600.00
2024-01-16T09:30:22.627Z,1498.00
2024-01-16T09:31:22.654Z,1546.00
2024-01-16T09:32:22.697Z,1580.00
2024-01-16T09:33:22.743Z,1574.00
2024-01-16T09:34:22.678Z,1575.00
2024-01-16T09:35:22.637Z,1607.00
2024-01-16T09:36:22.651Z,1610.00
2024-01-16T09:37:22.620Z,1629.00
2024-01-16T09:38:23.657Z,1685.00
2024-01-16T09:39:22.635Z,1686.00
2024-01-16T09:40:22.650Z,1701.00
2024-01-16T09:41:22.690Z,1706.00
2024-01-16T09:42:22.645Z,1712.00
2024-01-16T09:43:22.698Z,1702.00
2024-01-16T09:44:22.754Z,1708.00
2024-01-16T09:45:22.831Z,1779.00
2024-01-16T09:46:22.891Z,1777.00
2024-01-16T09:47:22.971Z,1769.00
2024-01-16T09:48:23.050Z,1786.00
2024-01-16T09:49:23.116Z,1741.00
2024-01-16T09:50:23.147Z,1748.00
2024-01-16T09:51:23.168Z,1841.00
2024-01-16T09:52:23.214Z,1854.00
2024-01-16T09:53:23.294Z,1837.00
2024-01-16T09:54:23.275Z,1773.00
2024-01-16T09:55:23.305Z,1773.00
2024-01-16T09:56:23.401Z,1842.00
2024-01-16T09:57:23.423Z,1807.00
2024-01-16T09:58:25.931Z,1850.00
2024-01-16T09:59:23.542Z,1870.00
2024-01-16T10:00:23.449Z,1902.00
2024-01-16T10:01:23.466Z,1922.00
2024-01-16T10:02:23.512Z,1926.00
2024-01-16T10:03:23.460Z,1931.00
2024-01-16T10:04:23.502Z,1934.00
2024-01-16T10:05:23.547Z,1930.00
2024-01-16T10:06:23.538Z,1926.00
2024-01-16T10:07:23.682Z,1871.00
2024-01-16T10:08:23.529Z,1870.00
2024-01-16T10:09:23.466Z,1966.00
2024-01-16T10:10:30.545Z,1966.00
2024-01-16T10:11:24.505Z,1863.00
2024-01-16T10:12:23.519Z,1848.00
2024-01-16T10:13:23.507Z,1846.00
2024-01-16T10:14:23.550Z,1845.00
2024-01-16T10:15:23.544Z,1847.00
2024-01-16T10:16:26.010Z,1945.00
2024-01-16T10:17:23.542Z,1970.00
2024-01-16T10:18:23.722Z,1979.00
2024-01-16T10:19:32.035Z,1992.00
2024-01-16T10:20:24.528Z,1988.00
2024-01-16T10:21:23.653Z,2055.00
2024-01-16T10:22:25.719Z,2079.00
2024-01-16T10:23:23.503Z,2063.00
2024-01-16T10:24:23.498Z,2062.00
2024-01-16T10:25:23.517Z,2074.00
2024-01-16T10:26:23.566Z,2009.00
2024-01-16T10:27:23.503Z,1926.00
2024-01-16T10:28:25.672Z,1923.00
2024-01-16T10:29:25.736Z,1903.00
2024-01-16T10:30:24.740Z,1914.00
2024-01-16T10:31:23.638Z,1924.00
2024-01-16T10:32:23.593Z,2020.00
2024-01-16T10:33:23.584Z,2054.00
2024-01-16T10:34:23.863Z,2062.00
2024-01-16T10:35:23.649Z,2063.00
2024-01-16T10:36:23.524Z,2069.00
2024-01-16T10:37:23.523Z,2143.00
2024-01-16T10:38:23.732Z,2172.00
2024-01-16T10:39:27.438Z,2190.00
2024-01-16T10:40:26.671Z,2194.00
2024-01-16T10:41:23.576Z,2202.00
2024-01-16T10:42:23.535Z,2234.00
2024-01-16T10:43:23.540Z,2251.00
2024-01-16T10:44:23.550Z,2339.00
2024-01-16T10:45:23.561Z,2233.00
2024-01-16T10:46:24.629Z,1951.00
2024-01-16T10:47:23.614Z,1927.00
2024-01-16T10:48:23.645Z,2078.00
2024-01-16T10:49:25.085Z,2062.00
2024-01-16T10:50:23.577Z,2066.00
2024-01-16T10:51:23.587Z,2075.00
2024-01-16T10:52:24.328Z,2081.00
2024-01-16T10:53:23.645Z,2103.00
2024-01-16T10:54:23.602Z,2118.00
2024-01-16T10:55:23.627Z,2106.00
2024-01-16T10:56:23.676Z,2264.00
2024-01-16T10:57:23.719Z,2303.00
2024-01-16T10:58:23.726Z,2300.00
2024-01-16T10:59:23.823Z,2299.00
2024-01-16T11:00:23.765Z,2271.00
2024-01-16T11:01:23.801Z,2261.00
2024-01-16T11:02:23.886Z,2277.00
2024-01-16T11:03:24.883Z,2289.00
2024-01-16T11:04:23.944Z,2354.00
2024-01-16T11:05:26.476Z,2371.00
2024-01-16T11:06:23.881Z,2377.00
2024-01-16T11:07:23.863Z,2387.00
2024-01-16T11:08:23.928Z,2421.00
2024-01-16T11:09:23.884Z,2437.00
2024-01-16T11:10:23.863Z,2460.00
2024-01-16T11:11:24.042Z,2483.00
2024-01-16T11:12:23.851Z,2522.00
2024-01-16T11:13:23.854Z,2536.00
2024-01-16T11:14:24.630Z,2550.00
2024-01-16T11:15:23.865Z,2556.00
2024-01-16T11:16:23.873Z,2565.00
2024-01-16T11:17:23.933Z,2604.00
2024-01-16T11:18:24.082Z,2617.00
2024-01-16T11:19:38.224Z,2621.00
2024-01-16T11:20:38.786Z,2627.00
2024-01-16T11:21:25.015Z,2631.00
2024-01-16T11:22:24.019Z,2637.00
2024-01-16T11:23:23.955Z,2647.00
2024-01-16T11:24:23.880Z,2662.00
2024-01-16T11:25:23.905Z,2713.00
2024-01-16T11:26:24.858Z,2714.00
2024-01-16T11:27:23.927Z,2719.00
2024-01-16T11:28:23.935Z,2721.00
2024-01-16T11:29:23.919Z,2725.00
2024-01-16T11:30:23.981Z,2729.00
2024-01-16T11:31:23.912Z,2736.00
2024-01-16T11:32:30.147Z,2748.00
2024-01-16T11:33:25.082Z,2756.00
2024-01-16T11:34:24.082Z,2753.00
2024-01-16T11:35:24.012Z,2754.00
2024-01-16T11:36:23.946Z,2759.00
2024-01-16T11:37:23.950Z,2766.00
2024-01-16T11:38:23.941Z,2770.00
2024-01-16T11:39:23.940Z,2788.00
2024-01-16T11:40:23.947Z,2807.00
2024-01-16T11:41:32.958Z,2820.00
2024-01-16T11:42:25.051Z,2852.00
2024-01-16T11:43:24.054Z,2797.00
2024-01-16T11:44:24.753Z,2803.00
2024-01-16T11:45:24.000Z,2799.00
2024-01-16T11:46:24.050Z,2802.00
2024-01-16T11:47:24.244Z,2792.00
2024-01-16T11:48:24.259Z,2780.00
2024-01-16T11:49:24.140Z,2764.00
2024-01-16T11:50:24.334Z,2757.00
2024-01-16T11:51:24.163Z,2751.00
2024-01-16T11:52:24.132Z,2745.00
2024-01-16T11:53:24.197Z,2734.00
2024-01-16T11:54:24.183Z,2721.00
2024-01-16T11:55:24.208Z,2706.00
2024-01-16T11:56:34.271Z,2694.00
2024-01-16T11:57:25.303Z,2679.00
2024-01-16T11:58:24.228Z,2675.00
2024-01-16T11:59:24.249Z,2663.00
2024-01-16T12:00:24.238Z,2655.00
2024-01-16T12:01:24.326Z,2648.00
2024-01-16T12:02:24.256Z,2644.00
2024-01-16T12:03:31.811Z,2641.00
2024-01-16T12:04:25.240Z,2639.00
2024-01-16T12:05:24.393Z,2631.00
2024-01-16T12:06:24.343Z,2625.00
2024-01-16T12:07:24.425Z,2619.00
2024-01-16T12:08:24.265Z,2608.00
2024-01-16T12:09:24.276Z,2599.00
2024-01-16T12:10:24.289Z,2602.00
2024-01-16T12:11:30.274Z,2596.00
2024-01-16T12:12:25.324Z,2594.00
2024-01-16T12:13:24.264Z,2589.00
2024-01-16T12:14:24.307Z,2579.00
2024-01-16T12:15:24.283Z,2575.00
2024-01-16T12:16:24.262Z,2574.00
2024-01-16T12:17:24.386Z,2574.00
2024-01-16T12:18:33.925Z,2574.00
2024-01-16T12:19:25.393Z,2566.00
2024-01-16T12:20:24.526Z,2559.00